Fargo, North Dakota
Current Conditions -  °F | °C
As of 4:53 PM on Sunday 21 Dec 2014 (Local Time) from KFAR Reporting Station
Overcast Overcast  
Wind Chill: 25°   Ceiling: 700
Heat Index: 34°   Visibility: 7mi
Dew Point: 31°   Wind: 14mph
Humidity: 89%   Direction: 140°SE
Pressure: 29.59"   Gusts: NA
Location:  46.88°N, 96.78°W
Report Text: KFAR 212253Z 14012KT 7SM OVC007 01/M01 A2959 RMK AO2 SLP030 T00111006
Loading
Personal Weather Stations






























Interactive Weather Map New forecast layout! Learn more

10-Day Weather Forecast

Advertisements
Track Severe Weather on mobile